Sunday, May 01, 2016
21:14 UTC
  |  Log In   |  Register Free
Airport Search:

Pocono Mountains Municipal Airport
(KMPO)

Pocono Mountains Municipal Airport Diagram
No Airport Diagram Available

FAA data valid effective Mar 31 2016 - May 26 2016 (unless otherwise noted).

 
 
 
 
 
 
 
 
 
 
 
 
 
 
Current Aviation Weather for KMPO

Weather Summary


The most recent METAR observation for MPO was updated at: 12:53 UTC
METAR for KMPO is not available. Closest METAR is for KAVP
KMPO  (most recent observation was updatred at 12:05 UTC)
012053Z AUTO 14010KT 5SM -RA BR OVC002 06/05 A3005 RMK AO2 SLP187 P0004 60014 T00560050 58007 TSNO

KAVP  (19.6 nm SE)   (most recent observation was updated at 12:05 UTC)
012054Z 20005KT 10SM SCT018 OVC024 09/06 A3003 RMK AO2 RAE04 SLP170 P0000 60009 T00940061 58016 $

KABE  (29.3 nm NE)   (most recent observation was updated at 12:05 UTC)
012051Z 13004KT 6SM BR OVC009 11/08 A3007 RMK AO2 SLP185 60000 T01060083 58016 $

TAF for KMPO is not available.
KAVP  (19.6 nm SE)   (most recent observation was updatred at 11:80 UTC)
AMD 011804Z 0118/0218 16004KT P6SM -SHRA OVC015 TEMPO 0118/0122 2SM RA BR FM020100 VRB03KT 3SM -DZ BR OVC012 FM021500 23005KT P6SM OVC015


KABE  (29.3 nm NE)   (most recent observation was updatred at 11:82 UTC)
AMD 011829Z 0118/0218 12006KT 4SM BR OVC008 FM012200 07006KT 4SM BR OVC008 FM020200 05004KT 2SM -DZ BR OVC004 FM021400 VRB03KT P6SM BKN008 OVC015


GlobalAir.com is loading additional information.
 Current Weather at MPO
41.0 F° (5.0 C°)

Southeast winds at 8.1 mph
Pressure:
30.06 in
Humidity:
96%
Wind:
Southeast at 8.1 mph
Dew Point:
39.9 F° (4.4 C°)
Visibility:
2.00 mi
MPO NOAA Radar




Find All Airport Services Find A Hotel Find A Rental Car Find A Golf Course Find A Restaurant $100 Hamburger



Airport Weather Forecast for KMPO

Translated METAR for KMPO (2053 UTC)
METAR:
KMPO 012053Z AUTO 14010KT 5SM -RA BR OVC002 06/05 A3005 RMK AO2 SLP187 P0004 60014 T00560050 58007 TSNO
Conditions at:
KMPO (Pocono Mountains Muni, PA) observed 2053 UTC 01 May 2016
Temperature:
6°C (42.8°F)
Dewpoint:
5°C (41°F) [RH = 93.3]
Pressure:
30.05 inches Hg (1017.6 mb)
pressure at sea level is 187 in Hg
Winds:
from the SE (140 degrees) at 11.5 mph (10 knots: 5.1 m/s)
Visibility:
5 mile(s)
Ceiling:
200 feet AGL
Clouds:
Overcast Skies at 200 feet AGL
Remarks:
site is un-manned
site is automated and HAS a precipitation sensor

Translated TAF for KAVP (Wilkes-Barre/Scranton Intl, PA) (1804 UTC)
TAF text:
KAVP 011804Z 0118/0218 16004KT P6SM -SHRA OVC015
Forecast period:
Sunday May 01 2016 18:00 UTC - Monday May 02 2016 18:00 UTC
Forecast type:
FROM: standard forecast or significant change
Winds:
from the SSE (160 degrees) at 4.6 mph (4 knots: 2.1 m/s)
Visibility:
6 or more mile(s) (9.7+ km)
Ceiling:
1,500 feet AGL
Clouds:
Overcast Skies at 1,500 feet AGL
Weather:
Light Shower(s) Rain
TAF text:
0118/0122 2SM RA BR
Forecast period:
Monday May 02 2016 18:00 UTC - Monday May 02 2016 22:00 UTC
Forecast type:
FROM: standard forecast or significant change
Winds:
Visibility:
2 mile(s) (3.2 km)
Ceiling:
Clouds:
Weather:
Moderate Rain
TAF text:
FM020100 VRB03KT 3SM -DZ BR OVC012
Forecast period:
Monday May 02 2016 01:00 UTC - Monday May 02 2016 15:00 UTC
Forecast type:
FROM: standard forecast or significant change
Winds:
variable wind direction at 3.5 mph (3 knots: 1.5 m/s)
Visibility:
3 mile(s) (4.8 km)
Ceiling:
1,200 feet AGL
Clouds:
Overcast Skies at 1,200 feet AGL
Weather:
Light Drizzle
TAF text:
FM021500 23005KT P6SM OVC015
Forecast period:
Monday May 02 2016 15:00 UTC - Monday May 02 2016 18:00 UTC
Forecast type:
FROM: standard forecast or significant change
Winds:
from the SW (230 degrees) at 5.8 mph (5 knots: 2.6 m/s)
Visibility:
6 or more mile(s) (9.7+ km)
Ceiling:
1,500 feet AGL
Clouds:
Overcast Skies at 1,500 feet AGL
Weather:
no significant weather observed at this time
FBO's on the Field
FBO Company Facility Photos Services Transportation Aviation Fuel Prices: Prices include tax
Catering Weather Repair Courtesy Rental Type 100LL JetA JetA+ MOGAS 8087
 
Pocono Mountains Municipal Airport Authority

This FBO has not yet been rated
FS:Phillips 66
Last Updated: Apr-11
Login to update fuel prices
SS:
Contact Pocono Mountains Municipal Airport AuthorityMore FBO Information
 
Add another FBO Facility Photos Catering Weather Repair Courtesy Rental Type 100LL JetA JetA+ MOGAS 8087
Services Transportation Aviation Fuel Prices: Prices include tax


model-print
model-print
model-print
model-print